Главная страница
METAR-TAF:

METAR-TAF

Аэропорты :

Бейрут, Ливан

широта: 33-49N, долгота: 035-29E, высота над уровнем моря: 29 м

Текущие метеонаблюдения

Эта сводка был подготовлена 20 минут назад, в 22:00 UTC
Ветер 4 Узел от юго-восточный
Температура 16°C
Влажность 68%
Давление 1019 hPa
Видимость 10 км и более
Рассеянная облачность на высоте 2600 фута

METAR: OLBA 092200Z 14004KT 9999 BKN026 16/10 Q1019 NOSIG

Время: 00:20 (22:20 UTC)

Прогноз

Эта сводка был подготовлена 6 часа и 20 минут назад, в 16:00 UTC
Прогноз действительный с 09-го 18 UTC до 10-го 24 UTC
Ветер 10 Узел от южный-юго-западный с порывами до 20 Узел
Видимость: 8000 м
Отдельные облака на высоте 2400 фута
изменения
С 10-го 09 UTC до 10-го 12 UTC
Ветер 20 Узел от южный-юго-западный с порывами до 35 Узел
Рассеянная облачность на высоте 3000 фута
временами
С 10-го 09 UTC до 10-го 24 UTC
Видимость: 5000 м
дождь

TAF: OLBA 091600Z 0918/1024 20010G20KT 8000 SCT024 BECMG 1009/1012 20020G35KT BKN030 TEMPO 1009/1024 5000 RA

Метеонаблюдения и прогнозы для более 4000 аэропортов (сводки METAR и TAF).

Имеющиеся станции представлены на карте желтыми и красными точками.

Чтобы увидеть название станции, наведите на нее мышь.

Затем щелкните, чтобы увидеть метеонаблюдения и метеопрогнозы.

Управление картой: чтобы увеличить масштаб, щелкните зеленые кнопки с черным крестиком; чтобы уменьшить масштаб, щелкните зеленую кнопку с тире; для просмотра соседних карт щелкайте зеленые стрелки.


METAR-TAF: